PWSweather.com
Personal Weather Stations
Station Observations
MENWDWX1
Menstrie, ScotlandGB

MenstrieScotlandGB

Lat: 56.148322, Lon: -3.85483

Elevation: 62

Station Type: Davis Vantage Pro 2

High Low Average
Temperature 60.5°F15.8°F 44.5°F6.9°F 51.1°F10.6°F
Dew Point 46.0°F7.8°F 38.1°F3.4°F 41.9°F5.5°F
Winds 9.2 mph -14.8 mph - Calm Calm 2.6 mph 4.2 mph
Wind Gusts 15.0 mph24.1 mph -- 4.3 mph6.9 mph
Humidity 79% 53% 71%
Pressure 30.45 in1031.20 in 30.24 in1024.00 in -
Precipitation 0.24 in6.10 in - -
Hour Temp Dew Point Humidity Winds Wind Gusts Pressure Precip Precip Rate Daily Precip Total
12:00 AM 50.4°F10.2°C 40.2°F4.6°C 68% 3.5 mph E5.6 kmh E 6.9 mph11.1 kmh 30.35 in1027.8 mb - 0.00 in0.0 mm 0.00 in0.0 mm
12:05 AM 50.2°F10.1°C 40.7°F4.8°C 70% 3.5 mph E5.6 kmh E 3.5 mph5.6 kmh 30.34 in1027.4 mb - 0.00 in0.0 mm 0.00 in0.0 mm
12:10 AM 50.3°F10.2°C 40.1°F4.5°C 68% 6.9 mph SE11.1 kmh SE 8.1 mph13.0 kmh 30.35 in1027.8 mb - 0.00 in0.0 mm 0.00 in0.0 mm
12:15 AM 51.1°F10.6°C 39.7°F4.3°C 65% 2.3 mph S3.7 kmh S 3.5 mph5.6 kmh 30.35 in1027.8 mb - 0.00 in0.0 mm 0.00 in0.0 mm
12:20 AM 51.5°F10.8°C 39.8°F4.3°C 64% 1.2 mph SE1.9 kmh SE 3.5 mph5.6 kmh 30.35 in1027.8 mb - 0.00 in0.0 mm 0.00 in0.0 mm
12:25 AM 51.6°F10.9°C 39.8°F4.3°C 64% 2.3 mph ESE3.7 kmh ESE 3.5 mph5.6 kmh 30.34 in1027.4 mb - 0.00 in0.0 mm 0.00 in0.0 mm
12:30 AM 51.4°F10.8°C 40.0°F4.4°C 65% 1.2 mph ESE1.9 kmh ESE 2.3 mph3.7 kmh 30.34 in1027.4 mb - 0.00 in0.0 mm 0.00 in0.0 mm
12:35 AM 51.2°F10.7°C 39.8°F4.3°C 65% 1.2 mph SE1.9 kmh SE 1.2 mph1.9 kmh 30.34 in1027.4 mb - 0.00 in0.0 mm 0.00 in0.0 mm
12:40 AM 51.0°F10.6°C 39.6°F4.2°C 65% 1.2 mph SE1.9 kmh SE 2.3 mph3.7 kmh 30.34 in1027.4 mb - 0.00 in0.0 mm 0.00 in0.0 mm
12:45 AM 50.9°F10.5°C 39.5°F4.2°C 65% Calm Calm 2.3 mph3.7 kmh 30.34 in1027.4 mb - 0.00 in0.0 mm 0.00 in0.0 mm
12:50 AM 50.6°F10.3°C 39.7°F4.3°C 66% 1.2 mph SE1.9 kmh SE 2.3 mph3.7 kmh 30.34 in1027.4 mb - 0.00 in0.0 mm 0.00 in0.0 mm
12:55 AM 50.3°F10.2°C 39.8°F4.3°C 67% 1.2 mph SE1.9 kmh SE 1.2 mph1.9 kmh 30.34 in1027.4 mb - 0.00 in0.0 mm 0.00 in0.0 mm
01:00 AM 50.3°F10.2°C 39.7°F4.3°C 67% 1.2 mph SE1.9 kmh SE 2.3 mph3.7 kmh 30.34 in1027.4 mb - 0.00 in0.0 mm 0.00 in0.0 mm
01:05 AM 50.1°F10.1°C 39.6°F4.2°C 67% Calm Calm -- 30.34 in1027.4 mb - 0.00 in0.0 mm 0.00 in0.0 mm
01:10 AM 49.8°F9.9°C 39.7°F4.3°C 68% Calm Calm -- 30.34 in1027.4 mb - 0.00 in0.0 mm 0.00 in0.0 mm
01:15 AM 49.7°F9.8°C 39.6°F4.2°C 68% Calm Calm -- 30.34 in1027.4 mb - 0.00 in0.0 mm 0.00 in0.0 mm
01:20 AM 49.6°F9.8°C 39.5°F4.2°C 68% 1.2 mph SE1.9 kmh SE 2.3 mph3.7 kmh 30.34 in1027.4 mb - 0.00 in0.0 mm 0.00 in0.0 mm
01:25 AM 49.5°F9.7°C 39.4°F4.1°C 68% Calm Calm -- 30.33 in1027.1 mb - 0.00 in0.0 mm 0.00 in0.0 mm
01:30 AM 49.3°F9.6°C 39.6°F4.2°C 69% 2.3 mph SSW3.7 kmh SSW 3.5 mph5.6 kmh 30.33 in1027.1 mb - 0.00 in0.0 mm 0.00 in0.0 mm
01:35 AM 49.6°F9.8°C 39.5°F4.2°C 68% 1.2 mph SSW1.9 kmh SSW 2.3 mph3.7 kmh 30.33 in1027.1 mb - 0.00 in0.0 mm 0.00 in0.0 mm
01:40 AM 49.6°F9.8°C 39.5°F4.2°C 68% 1.2 mph SSW1.9 kmh SSW 3.5 mph5.6 kmh 30.33 in1027.1 mb - 0.00 in0.0 mm 0.00 in0.0 mm
01:45 AM 49.7°F9.8°C 39.6°F4.2°C 68% 1.2 mph SSW1.9 kmh SSW 2.3 mph3.7 kmh 30.33 in1027.1 mb - 0.00 in0.0 mm 0.00 in0.0 mm
01:50 AM 49.7°F9.8°C 39.6°F4.2°C 68% 3.5 mph SE5.6 kmh SE 4.6 mph7.4 kmh 30.32 in1026.8 mb - 0.00 in0.0 mm 0.00 in0.0 mm
01:55 AM 50.0°F10.0°C 39.8°F4.3°C 68% 1.2 mph SE1.9 kmh SE 4.6 mph7.4 kmh 30.32 in1026.8 mb - 0.00 in0.0 mm 0.00 in0.0 mm
02:00 AM 50.0°F10.0°C 39.8°F4.3°C 68% 1.2 mph SE1.9 kmh SE 3.5 mph5.6 kmh 30.32 in1026.8 mb - 0.00 in0.0 mm 0.00 in0.0 mm
02:05 AM 49.8°F9.9°C 40.0°F4.4°C 69% 2.3 mph ESE3.7 kmh ESE 3.5 mph5.6 kmh 30.32 in1026.8 mb - 0.00 in0.0 mm 0.00 in0.0 mm
02:10 AM 49.5°F9.7°C 40.1°F4.5°C 70% 1.2 mph ESE1.9 kmh ESE 2.3 mph3.7 kmh 30.32 in1026.8 mb - 0.00 in0.0 mm 0.00 in0.0 mm
02:15 AM 49.2°F9.6°C 39.8°F4.3°C 70% 1.2 mph ESE1.9 kmh ESE 3.5 mph5.6 kmh 30.32 in1026.8 mb - 0.00 in0.0 mm 0.00 in0.0 mm
02:20 AM 49.0°F9.4°C 40.0°F4.4°C 71% 1.2 mph ESE1.9 kmh ESE 1.2 mph1.9 kmh 30.32 in1026.8 mb - 0.00 in0.0 mm 0.00 in0.0 mm
02:25 AM 48.8°F9.3°C 39.8°F4.3°C 71% 1.2 mph ESE1.9 kmh ESE 2.3 mph3.7 kmh 30.32 in1026.8 mb - 0.00 in0.0 mm 0.00 in0.0 mm
02:30 AM 48.6°F9.2°C 40.0°F4.4°C 72% Calm Calm 1.2 mph1.9 kmh 30.32 in1026.8 mb - 0.00 in0.0 mm 0.00 in0.0 mm
02:35 AM 48.6°F9.2°C 40.0°F4.4°C 72% 2.3 mph ESE3.7 kmh ESE 3.5 mph5.6 kmh 30.31 in1026.4 mb - 0.00 in0.0 mm 0.00 in0.0 mm
02:40 AM 48.8°F9.3°C 40.2°F4.6°C 72% 2.3 mph ESE3.7 kmh ESE 3.5 mph5.6 kmh 30.31 in1026.4 mb - 0.00 in0.0 mm 0.00 in0.0 mm
02:45 AM 48.9°F9.4°C 40.2°F4.6°C 72% 2.3 mph SE3.7 kmh SE 3.5 mph5.6 kmh 30.31 in1026.4 mb - 0.00 in0.0 mm 0.00 in0.0 mm
02:50 AM 49.2°F9.6°C 40.2°F4.6°C 71% 3.5 mph E5.6 kmh E 3.5 mph5.6 kmh 30.31 in1026.4 mb - 0.00 in0.0 mm 0.00 in0.0 mm
02:55 AM 49.7°F9.8°C 40.3°F4.6°C 70% 3.5 mph ESE5.6 kmh ESE 5.8 mph9.3 kmh 30.31 in1026.4 mb - 0.00 in0.0 mm 0.00 in0.0 mm
03:00 AM 50.0°F10.0°C 40.6°F4.8°C 70% 2.3 mph ESE3.7 kmh ESE 3.5 mph5.6 kmh 30.31 in1026.4 mb - 0.00 in0.0 mm 0.00 in0.0 mm
03:05 AM 50.2°F10.1°C 40.4°F4.7°C 69% 2.3 mph ESE3.7 kmh ESE 3.5 mph5.6 kmh 30.31 in1026.4 mb - 0.00 in0.0 mm 0.00 in0.0 mm
03:10 AM 50.1°F10.1°C 40.3°F4.6°C 69% 2.3 mph ESE3.7 kmh ESE 3.5 mph5.6 kmh 30.31 in1026.4 mb - 0.00 in0.0 mm 0.00 in0.0 mm
03:15 AM 50.1°F10.1°C 40.3°F4.6°C 69% 2.3 mph ESE3.7 kmh ESE 5.8 mph9.3 kmh 30.31 in1026.4 mb - 0.00 in0.0 mm 0.00 in0.0 mm
03:20 AM 50.2°F10.1°C 40.4°F4.7°C 69% 2.3 mph E3.7 kmh E 3.5 mph5.6 kmh 30.31 in1026.4 mb - 0.00 in0.0 mm 0.00 in0.0 mm
03:25 AM 50.3°F10.2°C 40.5°F4.7°C 69% 2.3 mph ESE3.7 kmh ESE 3.5 mph5.6 kmh 30.31 in1026.4 mb - 0.00 in0.0 mm 0.00 in0.0 mm
03:30 AM 50.5°F10.3°C 40.3°F4.6°C 68% 2.3 mph ESE3.7 kmh ESE 3.5 mph5.6 kmh 30.30 in1026.1 mb - 0.00 in0.0 mm 0.00 in0.0 mm
03:35 AM 50.5°F10.3°C 40.3°F4.6°C 68% 2.3 mph E3.7 kmh E 2.3 mph3.7 kmh 30.30 in1026.1 mb - 0.00 in0.0 mm 0.00 in0.0 mm
03:40 AM 50.5°F10.3°C 40.3°F4.6°C 68% 2.3 mph ESE3.7 kmh ESE 3.5 mph5.6 kmh 30.30 in1026.1 mb - 0.00 in0.0 mm 0.00 in0.0 mm
03:45 AM 50.5°F10.3°C 40.3°F4.6°C 68% 1.2 mph E1.9 kmh E 2.3 mph3.7 kmh 30.30 in1026.1 mb - 0.00 in0.0 mm 0.00 in0.0 mm
03:50 AM 50.6°F10.3°C 40.5°F4.7°C 68% 2.3 mph E3.7 kmh E 3.5 mph5.6 kmh 30.30 in1026.1 mb - 0.00 in0.0 mm 0.00 in0.0 mm
03:55 AM 50.6°F10.3°C 40.4°F4.7°C 68% 1.2 mph E1.9 kmh E 1.2 mph1.9 kmh 30.30 in1026.1 mb - 0.00 in0.0 mm 0.00 in0.0 mm
04:00 AM 50.5°F10.3°C 40.3°F4.6°C 68% Calm Calm -- 30.30 in1026.1 mb - 0.00 in0.0 mm 0.00 in0.0 mm
04:05 AM 50.1°F10.1°C 39.9°F4.4°C 68% Calm Calm 2.3 mph3.7 kmh 30.30 in1026.1 mb - 0.00 in0.0 mm 0.00 in0.0 mm
04:10 AM 49.8°F9.9°C 40.0°F4.4°C 69% Calm Calm -- 30.30 in1026.1 mb - 0.00 in0.0 mm 0.00 in0.0 mm
04:15 AM 49.5°F9.7°C 40.1°F4.5°C 70% Calm Calm -- 30.30 in1026.1 mb - 0.00 in0.0 mm 0.00 in0.0 mm
04:20 AM 49.3°F9.6°C 39.9°F4.4°C 70% Calm Calm -- 30.30 in1026.1 mb - 0.00 in0.0 mm 0.00 in0.0 mm
04:25 AM 49.1°F9.5°C 39.7°F4.3°C 70% Calm Calm -- 30.30 in1026.1 mb - 0.00 in0.0 mm 0.00 in0.0 mm
04:30 AM 48.9°F9.4°C 39.9°F4.4°C 71% Calm Calm -- 30.30 in1026.1 mb - 0.00 in0.0 mm 0.00 in0.0 mm
04:35 AM 48.7°F9.3°C 40.1°F4.5°C 72% Calm Calm -- 30.30 in1026.1 mb - 0.00 in0.0 mm 0.00 in0.0 mm
04:40 AM 48.6°F9.2°C 40.0°F4.4°C 72% Calm Calm -- 30.29 in1025.7 mb - 0.00 in0.0 mm 0.00 in0.0 mm
04:45 AM 48.5°F9.2°C 39.9°F4.4°C 72% Calm Calm -- 30.29 in1025.7 mb - 0.00 in0.0 mm 0.00 in0.0 mm
04:50 AM 48.2°F9.0°C 40.0°F4.4°C 73% 2.3 mph E3.7 kmh E 3.5 mph5.6 kmh 30.30 in1026.1 mb - 0.00 in0.0 mm 0.00 in0.0 mm
04:55 AM 48.1°F8.9°C 39.9°F4.4°C 73% 1.2 mph E1.9 kmh E 2.3 mph3.7 kmh 30.30 in1026.1 mb - 0.00 in0.0 mm 0.00 in0.0 mm
05:00 AM 48.0°F8.9°C 39.8°F4.3°C 73% 1.2 mph E1.9 kmh E 2.3 mph3.7 kmh 30.30 in1026.1 mb - 0.00 in0.0 mm 0.00 in0.0 mm
05:05 AM 47.9°F8.8°C 40.0°F4.4°C 74% Calm Calm -- 30.30 in1026.1 mb - 0.00 in0.0 mm 0.00 in0.0 mm
05:10 AM 47.9°F8.8°C 40.4°F4.7°C 75% 1.2 mph E1.9 kmh E 1.2 mph1.9 kmh 30.30 in1026.1 mb - 0.00 in0.0 mm 0.00 in0.0 mm
05:15 AM 47.8°F8.8°C 39.9°F4.4°C 74% 2.3 mph E3.7 kmh E 3.5 mph5.6 kmh 30.30 in1026.1 mb - 0.00 in0.0 mm 0.00 in0.0 mm
05:20 AM 47.8°F8.8°C 40.3°F4.6°C 75% 2.3 mph E3.7 kmh E 3.5 mph5.6 kmh 30.29 in1025.7 mb - 0.00 in0.0 mm 0.00 in0.0 mm
05:25 AM 47.8°F8.8°C 39.9°F4.4°C 74% 2.3 mph E3.7 kmh E 3.5 mph5.6 kmh 30.29 in1025.7 mb - 0.00 in0.0 mm 0.00 in0.0 mm
05:30 AM 47.9°F8.8°C 40.0°F4.4°C 74% 2.3 mph NE3.7 kmh NE 3.5 mph5.6 kmh 30.30 in1026.1 mb - 0.00 in0.0 mm 0.00 in0.0 mm
05:35 AM 47.9°F8.8°C 40.0°F4.4°C 74% 2.3 mph NE3.7 kmh NE 3.5 mph5.6 kmh 30.30 in1026.1 mb - 0.00 in0.0 mm 0.00 in0.0 mm
05:40 AM 47.9°F8.8°C 40.0°F4.4°C 74% Calm Calm 1.2 mph1.9 kmh 30.30 in1026.1 mb - 0.00 in0.0 mm 0.00 in0.0 mm
05:45 AM 47.9°F8.8°C 40.0°F4.4°C 74% Calm Calm -- 30.30 in1026.1 mb - 0.00 in0.0 mm 0.00 in0.0 mm
05:50 AM 47.8°F8.8°C 39.9°F4.4°C 74% 2.3 mph NE3.7 kmh NE 3.5 mph5.6 kmh 30.30 in1026.1 mb - 0.00 in0.0 mm 0.00 in0.0 mm
05:55 AM 48.0°F8.9°C 39.8°F4.3°C 73% 2.3 mph NE3.7 kmh NE 3.5 mph5.6 kmh 30.30 in1026.1 mb - 0.00 in0.0 mm 0.00 in0.0 mm
06:00 AM 48.2°F9.0°C 40.0°F4.4°C 73% 3.5 mph ENE5.6 kmh ENE 3.5 mph5.6 kmh 30.30 in1026.1 mb - 0.00 in0.0 mm 0.00 in0.0 mm
06:05 AM 48.4°F9.1°C 39.8°F4.3°C 72% Calm Calm 1.2 mph1.9 kmh 30.30 in1026.1 mb - 0.00 in0.0 mm 0.00 in0.0 mm
06:10 AM 48.7°F9.3°C 40.1°F4.5°C 72% 2.3 mph ESE3.7 kmh ESE 3.5 mph5.6 kmh 30.30 in1026.1 mb - 0.00 in0.0 mm 0.00 in0.0 mm
06:15 AM 48.8°F9.3°C 40.2°F4.6°C 72% 1.2 mph ESE1.9 kmh ESE 3.5 mph5.6 kmh 30.30 in1026.1 mb - 0.00 in0.0 mm 0.00 in0.0 mm
06:20 AM 48.6°F9.2°C 40.0°F4.4°C 72% 1.2 mph ESE1.9 kmh ESE 2.3 mph3.7 kmh 30.30 in1026.1 mb - 0.00 in0.0 mm 0.00 in0.0 mm
06:25 AM 48.3°F9.1°C 39.7°F4.3°C 72% 3.5 mph ESE5.6 kmh ESE 3.5 mph5.6 kmh 30.30 in1026.1 mb - 0.00 in0.0 mm 0.00 in0.0 mm
06:30 AM 48.2°F9.0°C 39.9°F4.4°C 73% 1.2 mph ESE1.9 kmh ESE 3.5 mph5.6 kmh 30.30 in1026.1 mb - 0.00 in0.0 mm 0.00 in0.0 mm
06:35 AM 48.2°F9.0°C 39.6°F4.2°C 72% 1.2 mph ESE1.9 kmh ESE 2.3 mph3.7 kmh 30.30 in1026.1 mb - 0.00 in0.0 mm 0.00 in0.0 mm
06:40 AM 48.5°F9.2°C 39.9°F4.4°C 72% 4.6 mph E7.4 kmh E 5.8 mph9.3 kmh 30.29 in1025.7 mb - 0.00 in0.0 mm 0.00 in0.0 mm
06:45 AM 49.0°F9.4°C 40.0°F4.4°C 71% 2.3 mph E3.7 kmh E 3.5 mph5.6 kmh 30.30 in1026.1 mb - 0.00 in0.0 mm 0.00 in0.0 mm
06:50 AM 49.2°F9.6°C 40.2°F4.6°C 71% 3.5 mph E5.6 kmh E 4.6 mph7.4 kmh 30.30 in1026.1 mb - 0.00 in0.0 mm 0.00 in0.0 mm
06:55 AM 49.5°F9.7°C 40.1°F4.5°C 70% 5.8 mph E9.3 kmh E 6.9 mph11.1 kmh 30.29 in1025.7 mb - 0.00 in0.0 mm 0.00 in0.0 mm
07:00 AM 49.7°F9.8°C 39.9°F4.4°C 69% 2.3 mph SE3.7 kmh SE 3.5 mph5.6 kmh 30.30 in1026.1 mb - 0.00 in0.0 mm 0.00 in0.0 mm
07:05 AM 49.8°F9.9°C 40.0°F4.4°C 69% 4.6 mph E7.4 kmh E 5.8 mph9.3 kmh 30.30 in1026.1 mb - 0.00 in0.0 mm 0.00 in0.0 mm
07:10 AM 49.9°F9.9°C 39.8°F4.3°C 68% 2.3 mph ESE3.7 kmh ESE 3.5 mph5.6 kmh 30.30 in1026.1 mb - 0.00 in0.0 mm 0.00 in0.0 mm
07:15 AM 49.8°F9.9°C 39.7°F4.3°C 68% 2.3 mph ESE3.7 kmh ESE 3.5 mph5.6 kmh 30.30 in1026.1 mb - 0.00 in0.0 mm 0.00 in0.0 mm
07:20 AM 49.7°F9.8°C 39.6°F4.2°C 68% 2.3 mph ESE3.7 kmh ESE 3.5 mph5.6 kmh 30.30 in1026.1 mb - 0.00 in0.0 mm 0.00 in0.0 mm
07:25 AM 50.1°F10.1°C 39.9°F4.4°C 68% 5.8 mph E9.3 kmh E 5.8 mph9.3 kmh 30.29 in1025.7 mb - 0.00 in0.0 mm 0.00 in0.0 mm
07:30 AM 50.4°F10.2°C 39.9°F4.4°C 67% 4.6 mph E7.4 kmh E 6.9 mph11.1 kmh 30.29 in1025.7 mb - 0.00 in0.0 mm 0.00 in0.0 mm
07:35 AM 50.5°F10.3°C 39.9°F4.4°C 67% 3.5 mph E5.6 kmh E 5.8 mph9.3 kmh 30.30 in1026.1 mb - 0.00 in0.0 mm 0.00 in0.0 mm
07:40 AM 50.4°F10.2°C 39.9°F4.4°C 67% 2.3 mph E3.7 kmh E 3.5 mph5.6 kmh 30.30 in1026.1 mb - 0.00 in0.0 mm 0.00 in0.0 mm
07:45 AM 50.5°F10.3°C 39.6°F4.2°C 66% 1.2 mph SE1.9 kmh SE 3.5 mph5.6 kmh 30.30 in1026.1 mb - 0.00 in0.0 mm 0.00 in0.0 mm
07:50 AM 50.5°F10.3°C 39.9°F4.4°C 67% 2.3 mph NNE3.7 kmh NNE 3.5 mph5.6 kmh 30.30 in1026.1 mb - 0.00 in0.0 mm 0.00 in0.0 mm
07:55 AM 50.3°F10.2°C 39.8°F4.3°C 67% 2.3 mph SSE3.7 kmh SSE 3.5 mph5.6 kmh 30.30 in1026.1 mb - 0.00 in0.0 mm 0.00 in0.0 mm
08:00 AM 50.1°F10.1°C 39.6°F4.2°C 67% 2.3 mph SSE3.7 kmh SSE 3.5 mph5.6 kmh 30.30 in1026.1 mb - 0.00 in0.0 mm 0.00 in0.0 mm
08:05 AM 49.9°F9.9°C 39.8°F4.3°C 68% 2.3 mph SE3.7 kmh SE 3.5 mph5.6 kmh 30.30 in1026.1 mb - 0.00 in0.0 mm 0.00 in0.0 mm
08:10 AM 49.7°F9.8°C 39.6°F4.2°C 68% 3.5 mph E5.6 kmh E 5.8 mph9.3 kmh 30.29 in1025.7 mb - 0.00 in0.0 mm 0.00 in0.0 mm
08:15 AM 49.7°F9.8°C 39.6°F4.2°C 68% 3.5 mph E5.6 kmh E 6.9 mph11.1 kmh 30.29 in1025.7 mb - 0.00 in0.0 mm 0.00 in0.0 mm
08:20 AM 49.9°F9.9°C 39.7°F4.3°C 68% 3.5 mph E5.6 kmh E 5.8 mph9.3 kmh 30.29 in1025.7 mb - 0.00 in0.0 mm 0.00 in0.0 mm
08:25 AM 50.0°F10.0°C 39.9°F4.4°C 68% 2.3 mph E3.7 kmh E 3.5 mph5.6 kmh 30.29 in1025.7 mb - 0.00 in0.0 mm 0.00 in0.0 mm
08:30 AM 50.1°F10.1°C 39.9°F4.4°C 68% 3.5 mph E5.6 kmh E 3.5 mph5.6 kmh 30.29 in1025.7 mb - 0.00 in0.0 mm 0.00 in0.0 mm
08:35 AM 50.3°F10.2°C 40.2°F4.6°C 68% 8.1 mph E13.0 kmh E 9.2 mph14.8 kmh 30.29 in1025.7 mb - 0.00 in0.0 mm 0.00 in0.0 mm
08:40 AM 50.6°F10.3°C 40.0°F4.4°C 67% 4.6 mph E7.4 kmh E 9.2 mph14.8 kmh 30.29 in1025.7 mb - 0.00 in0.0 mm 0.00 in0.0 mm
08:45 AM 50.8°F10.4°C 40.2°F4.6°C 67% 3.5 mph E5.6 kmh E 5.8 mph9.3 kmh 30.28 in1025.4 mb - 0.00 in0.0 mm 0.00 in0.0 mm
08:50 AM 50.7°F10.4°C 40.1°F4.5°C 67% 4.6 mph ESE7.4 kmh ESE 6.9 mph11.1 kmh 30.28 in1025.4 mb - 0.00 in0.0 mm 0.00 in0.0 mm
08:55 AM 50.8°F10.4°C 40.2°F4.6°C 67% 3.5 mph SE5.6 kmh SE 4.6 mph7.4 kmh 30.28 in1025.4 mb - 0.00 in0.0 mm 0.00 in0.0 mm
09:00 AM 50.8°F10.4°C 40.2°F4.6°C 67% 4.6 mph ESE7.4 kmh ESE 4.6 mph7.4 kmh 30.27 in1025.1 mb - 0.00 in0.0 mm 0.00 in0.0 mm
09:05 AM 50.7°F10.4°C 40.1°F4.5°C 67% 2.3 mph ESE3.7 kmh ESE 3.5 mph5.6 kmh 30.28 in1025.4 mb - 0.00 in0.0 mm 0.00 in0.0 mm
09:10 AM 50.6°F10.3°C 40.4°F4.7°C 68% 2.3 mph SE3.7 kmh SE 3.5 mph5.6 kmh 30.28 in1025.4 mb - 0.00 in0.0 mm 0.00 in0.0 mm
09:15 AM 50.7°F10.4°C 40.5°F4.7°C 68% 2.3 mph ESE3.7 kmh ESE 3.5 mph5.6 kmh 30.27 in1025.1 mb - 0.00 in0.0 mm 0.00 in0.0 mm
09:20 AM 50.8°F10.4°C 40.2°F4.6°C 67% 2.3 mph SE3.7 kmh SE 3.5 mph5.6 kmh 30.28 in1025.4 mb - 0.00 in0.0 mm 0.00 in0.0 mm
09:25 AM 51.0°F10.6°C 40.4°F4.7°C 67% 4.6 mph SE7.4 kmh SE 6.9 mph11.1 kmh 30.28 in1025.4 mb - 0.00 in0.0 mm 0.00 in0.0 mm
09:30 AM 51.1°F10.6°C 40.5°F4.7°C 67% 3.5 mph SE5.6 kmh SE 8.1 mph13.0 kmh 30.28 in1025.4 mb - 0.00 in0.0 mm 0.00 in0.0 mm
09:35 AM 51.1°F10.6°C 40.9°F4.9°C 68% 1.2 mph S1.9 kmh S 3.5 mph5.6 kmh 30.28 in1025.4 mb - 0.00 in0.0 mm 0.00 in0.0 mm
09:40 AM 51.1°F10.6°C 40.5°F4.7°C 67% 1.2 mph ESE1.9 kmh ESE 2.3 mph3.7 kmh 30.28 in1025.4 mb - 0.00 in0.0 mm 0.00 in0.0 mm
09:45 AM 51.2°F10.7°C 41.0°F5.0°C 68% 1.2 mph SE1.9 kmh SE 3.5 mph5.6 kmh 30.28 in1025.4 mb - 0.00 in0.0 mm 0.00 in0.0 mm
09:50 AM 51.4°F10.8°C 40.8°F4.9°C 67% 1.2 mph SE1.9 kmh SE 2.3 mph3.7 kmh 30.28 in1025.4 mb - 0.00 in0.0 mm 0.00 in0.0 mm
09:55 AM 51.7°F10.9°C 41.1°F5.1°C 67% 3.5 mph S5.6 kmh S 4.6 mph7.4 kmh 30.29 in1025.7 mb - 0.00 in0.0 mm 0.00 in0.0 mm
10:00 AM 51.9°F11.1°C 41.3°F5.2°C 67% 1.2 mph S1.9 kmh S 1.2 mph1.9 kmh 30.28 in1025.4 mb - 0.00 in0.0 mm 0.00 in0.0 mm
10:05 AM 52.0°F11.1°C 41.4°F5.2°C 67% 1.2 mph SSE1.9 kmh SSE 2.3 mph3.7 kmh 30.28 in1025.4 mb - 0.00 in0.0 mm 0.00 in0.0 mm
10:10 AM 52.2°F11.2°C 41.6°F5.3°C 67% 2.3 mph SE3.7 kmh SE 3.5 mph5.6 kmh 30.28 in1025.4 mb - 0.00 in0.0 mm 0.00 in0.0 mm
10:15 AM 52.3°F11.3°C 41.3°F5.2°C 66% 3.5 mph SSE5.6 kmh SSE 4.6 mph7.4 kmh 30.28 in1025.4 mb - 0.00 in0.0 mm 0.00 in0.0 mm
10:20 AM 52.5°F11.4°C 41.5°F5.3°C 66% 5.8 mph SSE9.3 kmh SSE 6.9 mph11.1 kmh 30.28 in1025.4 mb - 0.00 in0.0 mm 0.00 in0.0 mm
10:25 AM 52.7°F11.5°C 41.7°F5.4°C 66% 5.8 mph SE9.3 kmh SE 6.9 mph11.1 kmh 30.28 in1025.4 mb - 0.00 in0.0 mm 0.00 in0.0 mm
10:30 AM 52.8°F11.6°C 41.7°F5.4°C 66% 4.6 mph SE7.4 kmh SE 8.1 mph13.0 kmh 30.28 in1025.4 mb - 0.00 in0.0 mm 0.00 in0.0 mm
10:35 AM 52.9°F11.6°C 41.9°F5.5°C 66% 4.6 mph SSE7.4 kmh SSE 11.5 mph18.5 kmh 30.27 in1025.1 mb - 0.00 in0.0 mm 0.00 in0.0 mm
10:40 AM 53.0°F11.7°C 42.0°F5.6°C 66% 5.8 mph SE9.3 kmh SE 11.5 mph18.5 kmh 30.28 in1025.4 mb - 0.00 in0.0 mm 0.00 in0.0 mm
10:45 AM 53.2°F11.8°C 41.7°F5.4°C 65% 4.6 mph SSE7.4 kmh SSE 5.8 mph9.3 kmh 30.27 in1025.1 mb - 0.00 in0.0 mm 0.00 in0.0 mm
10:50 AM 53.3°F11.8°C 41.8°F5.4°C 65% 4.6 mph S7.4 kmh S 6.9 mph11.1 kmh 30.28 in1025.4 mb - 0.00 in0.0 mm 0.00 in0.0 mm
10:55 AM 53.5°F11.9°C 42.0°F5.6°C 65% 3.5 mph SE5.6 kmh SE 5.8 mph9.3 kmh 30.27 in1025.1 mb - 0.00 in0.0 mm 0.00 in0.0 mm
11:00 AM 53.7°F12.1°C 42.2°F5.7°C 65% 2.3 mph E3.7 kmh E 3.5 mph5.6 kmh 30.28 in1025.4 mb - 0.00 in0.0 mm 0.00 in0.0 mm
11:05 AM 53.9°F12.2°C 42.0°F5.6°C 64% 5.8 mph SE9.3 kmh SE 8.1 mph13.0 kmh 30.27 in1025.1 mb - 0.00 in0.0 mm 0.00 in0.0 mm
11:10 AM 54.0°F12.2°C 42.1°F5.6°C 64% 2.3 mph ESE3.7 kmh ESE 3.5 mph5.6 kmh 30.27 in1025.1 mb - 0.00 in0.0 mm 0.00 in0.0 mm
11:15 AM 54.1°F12.3°C 42.2°F5.7°C 64% 5.8 mph SE9.3 kmh SE 8.1 mph13.0 kmh 30.27 in1025.1 mb - 0.00 in0.0 mm 0.00 in0.0 mm
11:20 AM 54.2°F12.3°C 42.3°F5.7°C 64% 5.8 mph ESE9.3 kmh ESE 8.1 mph13.0 kmh 30.27 in1025.1 mb - 0.00 in0.0 mm 0.00 in0.0 mm
11:25 AM 54.3°F12.4°C 42.0°F5.6°C 63% 4.6 mph ESE7.4 kmh ESE 8.1 mph13.0 kmh 30.27 in1025.1 mb - 0.00 in0.0 mm 0.00 in0.0 mm
11:30 AM 54.4°F12.4°C 42.1°F5.6°C 63% 3.5 mph ESE5.6 kmh ESE 5.8 mph9.3 kmh 30.27 in1025.1 mb - 0.00 in0.0 mm 0.00 in0.0 mm
11:35 AM 54.6°F12.6°C 42.3°F5.7°C 63% 3.5 mph SE5.6 kmh SE 5.8 mph9.3 kmh 30.27 in1025.1 mb - 0.00 in0.0 mm 0.00 in0.0 mm
11:40 AM 54.8°F12.7°C 42.4°F5.8°C 63% 3.5 mph ESE5.6 kmh ESE 5.8 mph9.3 kmh 30.26 in1024.7 mb - 0.00 in0.0 mm 0.00 in0.0 mm
11:45 AM 55.1°F12.8°C 42.3°F5.7°C 62% 3.5 mph SE5.6 kmh SE 8.1 mph13.0 kmh 30.27 in1025.1 mb - 0.00 in0.0 mm 0.00 in0.0 mm
11:50 AM 55.5°F13.1°C 42.7°F5.9°C 62% 2.3 mph SE3.7 kmh SE 4.6 mph7.4 kmh 30.26 in1024.7 mb - 0.00 in0.0 mm 0.00 in0.0 mm
11:55 AM 55.8°F13.2°C 43.0°F6.1°C 62% 2.3 mph S3.7 kmh S 3.5 mph5.6 kmh 30.26 in1024.7 mb - 0.00 in0.0 mm 0.00 in0.0 mm
12:00 PM 56.0°F13.3°C 42.7°F5.9°C 61% 3.5 mph S5.6 kmh S 4.6 mph7.4 kmh 30.26 in1024.7 mb - 0.00 in0.0 mm 0.00 in0.0 mm
12:05 PM 56.2°F13.4°C 42.9°F6.1°C 61% 3.5 mph S5.6 kmh S 3.5 mph5.6 kmh 30.26 in1024.7 mb - 0.00 in0.0 mm 0.00 in0.0 mm
12:10 PM 56.5°F13.6°C 43.2°F6.2°C 61% 6.9 mph SW11.1 kmh SW 10.4 mph16.7 kmh 30.25 in1024.4 mb - 0.00 in0.0 mm 0.00 in0.0 mm
12:15 PM 57.1°F13.9°C 42.9°F6.1°C 59% 4.6 mph SW7.4 kmh SW 5.8 mph9.3 kmh 30.25 in1024.4 mb - 0.00 in0.0 mm 0.00 in0.0 mm
12:20 PM 57.3°F14.1°C 42.6°F5.9°C 58% 5.8 mph SSW9.3 kmh SSW 10.4 mph16.7 kmh 30.25 in1024.4 mb - 0.00 in0.0 mm 0.00 in0.0 mm
12:25 PM 57.4°F14.1°C 42.7°F5.9°C 58% 4.6 mph SW7.4 kmh SW 8.1 mph13.0 kmh 30.25 in1024.4 mb - 0.00 in0.0 mm 0.00 in0.0 mm
12:30 PM 57.7°F14.3°C 43.1°F6.2°C 58% 8.1 mph SW13.0 kmh SW 10.4 mph16.7 kmh 30.25 in1024.4 mb - 0.00 in0.0 mm 0.00 in0.0 mm
12:35 PM 58.4°F14.7°C 43.2°F6.2°C 57% 3.5 mph SW5.6 kmh SW 9.2 mph14.8 kmh 30.25 in1024.4 mb - 0.00 in0.0 mm 0.00 in0.0 mm
12:40 PM 58.8°F14.9°C 42.7°F5.9°C 55% 3.5 mph SW5.6 kmh SW 4.6 mph7.4 kmh 30.25 in1024.4 mb - 0.00 in0.0 mm 0.00 in0.0 mm
12:45 PM 59.2°F15.1°C 43.0°F6.1°C 55% 4.6 mph SW7.4 kmh SW 5.8 mph9.3 kmh 30.25 in1024.4 mb - 0.00 in0.0 mm 0.00 in0.0 mm
12:50 PM 59.5°F15.3°C 42.8°F6.0°C 54% 2.3 mph WSW3.7 kmh WSW 5.8 mph9.3 kmh 30.24 in1024.0 mb - 0.00 in0.0 mm 0.00 in0.0 mm
12:55 PM 59.6°F15.3°C 42.4°F5.8°C 53% 2.3 mph WSW3.7 kmh WSW 3.5 mph5.6 kmh 30.24 in1024.0 mb - 0.00 in0.0 mm 0.00 in0.0 mm
01:00 PM 59.8°F15.4°C 43.1°F6.2°C 54% 2.3 mph W3.7 kmh W 3.5 mph5.6 kmh 30.24 in1024.0 mb - 0.00 in0.0 mm 0.00 in0.0 mm
01:05 PM 60.3°F15.7°C 43.1°F6.2°C 53% 5.8 mph SW9.3 kmh SW 8.1 mph13.0 kmh 30.25 in1024.4 mb - 0.00 in0.0 mm 0.00 in0.0 mm
01:10 PM 60.5°F15.8°C 43.3°F6.3°C 53% 3.5 mph W5.6 kmh W 3.5 mph5.6 kmh 30.25 in1024.4 mb - 0.00 in0.0 mm 0.00 in0.0 mm
01:15 PM 60.4°F15.8°C 43.2°F6.2°C 53% 3.5 mph SW5.6 kmh SW 4.6 mph7.4 kmh 30.24 in1024.0 mb - 0.00 in0.0 mm 0.00 in0.0 mm
01:20 PM 60.2°F15.7°C 43.0°F6.1°C 53% 4.6 mph SW7.4 kmh SW 6.9 mph11.1 kmh 30.25 in1024.4 mb - 0.00 in0.0 mm 0.00 in0.0 mm
01:25 PM 59.4°F15.2°C 42.8°F6.0°C 54% 6.9 mph SW11.1 kmh SW 10.4 mph16.7 kmh 30.25 in1024.4 mb - 0.00 in0.0 mm 0.00 in0.0 mm
01:30 PM 58.9°F14.9°C 43.7°F6.5°C 57% 3.5 mph SSW5.6 kmh SSW 3.5 mph5.6 kmh 30.25 in1024.4 mb - 0.00 in0.0 mm 0.00 in0.0 mm
01:35 PM 58.8°F14.9°C 43.6°F6.4°C 57% 4.6 mph SSE7.4 kmh SSE 6.9 mph11.1 kmh 30.25 in1024.4 mb - 0.00 in0.0 mm 0.00 in0.0 mm
01:40 PM 58.6°F14.8°C 43.9°F6.6°C 58% 3.5 mph S5.6 kmh S 6.9 mph11.1 kmh 30.24 in1024.0 mb - 0.00 in0.0 mm 0.00 in0.0 mm
01:45 PM 58.3°F14.6°C 43.6°F6.4°C 58% 4.6 mph S7.4 kmh S 6.9 mph11.1 kmh 30.24 in1024.0 mb - 0.00 in0.0 mm 0.00 in0.0 mm
01:50 PM 58.1°F14.5°C 43.8°F6.6°C 59% 3.5 mph SSW5.6 kmh SSW 9.2 mph14.8 kmh 30.25 in1024.4 mb - 0.00 in0.0 mm 0.00 in0.0 mm
01:55 PM 57.9°F14.4°C 43.2°F6.2°C 58% 5.8 mph SSW9.3 kmh SSW 6.9 mph11.1 kmh 30.25 in1024.4 mb - 0.00 in0.0 mm 0.00 in0.0 mm
02:00 PM 57.8°F14.3°C 43.6°F6.4°C 59% 4.6 mph S7.4 kmh S 11.5 mph18.5 kmh 30.25 in1024.4 mb - 0.00 in0.0 mm 0.00 in0.0 mm
02:05 PM 57.6°F14.2°C 43.4°F6.3°C 59% 5.8 mph SW9.3 kmh SW 9.2 mph14.8 kmh 30.25 in1024.4 mb - 0.00 in0.0 mm 0.00 in0.0 mm
02:10 PM 57.2°F14.0°C 43.4°F6.3°C 60% 5.8 mph SW9.3 kmh SW 9.2 mph14.8 kmh 30.26 in1024.7 mb - 0.00 in0.0 mm 0.00 in0.0 mm
02:15 PM 56.8°F13.8°C 43.5°F6.4°C 61% 6.9 mph SW11.1 kmh SW 15.0 mph24.1 kmh 30.27 in1025.1 mb - 0.00 in0.0 mm 0.00 in0.0 mm
02:20 PM 56.5°F13.6°C 43.6°F6.4°C 62% 6.9 mph SW11.1 kmh SW 11.5 mph18.5 kmh 30.27 in1025.1 mb - 0.00 in0.0 mm 0.00 in0.0 mm
02:25 PM 56.2°F13.4°C 43.8°F6.6°C 63% 8.1 mph SW13.0 kmh SW 11.5 mph18.5 kmh 30.27 in1025.1 mb - 0.00 in0.0 mm 0.00 in0.0 mm
02:30 PM 55.7°F13.2°C 44.2°F6.8°C 65% 8.1 mph SW13.0 kmh SW 10.4 mph16.7 kmh 30.27 in1025.1 mb - 0.00 in0.0 mm 0.00 in0.0 mm
02:35 PM 55.4°F13.0°C 44.2°F6.8°C 66% 5.8 mph SW9.3 kmh SW 6.9 mph11.1 kmh 30.27 in1025.1 mb - 0.00 in0.0 mm 0.00 in0.0 mm
02:40 PM 55.1°F12.8°C 44.3°F6.8°C 67% 4.6 mph SSW7.4 kmh SSW 11.5 mph18.5 kmh 30.27 in1025.1 mb - 0.00 in0.0 mm 0.00 in0.0 mm
02:45 PM 54.9°F12.7°C 44.2°F6.8°C 67% 4.6 mph SW7.4 kmh SW 5.8 mph9.3 kmh 30.27 in1025.1 mb - 0.00 in0.0 mm 0.00 in0.0 mm
02:50 PM 54.7°F12.6°C 44.4°F6.9°C 68% 2.3 mph SSW3.7 kmh SSW 3.5 mph5.6 kmh 30.27 in1025.1 mb - 0.00 in0.0 mm 0.00 in0.0 mm
02:55 PM 54.6°F12.6°C 44.6°F7.0°C 69% 4.6 mph SW7.4 kmh SW 8.1 mph13.0 kmh 30.27 in1025.1 mb - 0.00 in0.0 mm 0.00 in0.0 mm
03:00 PM 54.4°F12.4°C 44.4°F6.9°C 69% 4.6 mph WSW7.4 kmh WSW 10.4 mph16.7 kmh 30.27 in1025.1 mb - 0.00 in0.0 mm 0.00 in0.0 mm
03:05 PM 54.1°F12.3°C 45.7°F7.6°C 73% 9.2 mph WSW14.8 kmh WSW 15.0 mph24.1 kmh 30.27 in1025.1 mb - 0.00 in0.0 mm 0.00 in0.0 mm
03:10 PM 53.3°F11.8°C 46.0°F7.8°C 76% 8.1 mph WSW13.0 kmh WSW 15.0 mph24.1 kmh 30.28 in1025.4 mb - 0.00 in0.0 mm 0.00 in0.0 mm
03:15 PM 52.7°F11.5°C 45.7°F7.6°C 77% 9.2 mph WSW14.8 kmh WSW 12.7 mph20.4 kmh 30.29 in1025.7 mb - 0.00 in0.0 mm 0.00 in0.0 mm
03:20 PM 52.1°F11.2°C 45.4°F7.4°C 78% 5.8 mph WSW9.3 kmh WSW 10.4 mph16.7 kmh 30.29 in1025.7 mb - 0.00 in0.0 mm 0.00 in0.0 mm
03:25 PM 51.6°F10.9°C 45.3°F7.4°C 79% 4.6 mph W7.4 kmh W 9.2 mph14.8 kmh 30.28 in1025.4 mb - 0.00 in0.0 mm 0.00 in0.0 mm
03:30 PM 51.3°F10.7°C 45.0°F7.2°C 79% 2.3 mph W3.7 kmh W 3.5 mph5.6 kmh 30.28 in1025.4 mb - 0.01 in0.3 mm 0.01 in0.3 mm
03:35 PM 51.1°F10.6°C 44.8°F7.1°C 79% 1.2 mph WNW1.9 kmh WNW 2.3 mph3.7 kmh 30.28 in1025.4 mb - 0.01 in0.3 mm 0.01 in0.3 mm
03:40 PM 51.0°F10.6°C 44.7°F7.1°C 79% 1.2 mph W1.9 kmh W 3.5 mph5.6 kmh 30.27 in1025.1 mb - 0.02 in0.5 mm 0.02 in0.5 mm
03:45 PM 50.9°F10.5°C 44.6°F7.0°C 79% Calm Calm 1.2 mph1.9 kmh 30.28 in1025.4 mb - 0.02 in0.5 mm 0.02 in0.5 mm
03:50 PM 51.0°F10.6°C 44.7°F7.1°C 79% 2.3 mph S3.7 kmh S 3.5 mph5.6 kmh 30.28 in1025.4 mb - 0.02 in0.5 mm 0.02 in0.5 mm
03:55 PM 51.0°F10.6°C 44.4°F6.9°C 78% 1.2 mph SSE1.9 kmh SSE 1.2 mph1.9 kmh 30.28 in1025.4 mb - 0.02 in0.5 mm 0.02 in0.5 mm
04:00 PM 51.0°F10.6°C 44.4°F6.9°C 78% 1.2 mph SSE1.9 kmh SSE 2.3 mph3.7 kmh 30.28 in1025.4 mb - 0.02 in0.5 mm 0.02 in0.5 mm
04:05 PM 50.9°F10.5°C 44.3°F6.8°C 78% Calm Calm -- 30.28 in1025.4 mb - 0.02 in0.5 mm 0.02 in0.5 mm
04:10 PM 50.9°F10.5°C 44.3°F6.8°C 78% Calm Calm -- 30.28 in1025.4 mb - 0.02 in0.5 mm 0.02 in0.5 mm
04:15 PM 50.8°F10.4°C 44.2°F6.8°C 78% 2.3 mph NE3.7 kmh NE 3.5 mph5.6 kmh 30.28 in1025.4 mb - 0.02 in0.5 mm 0.02 in0.5 mm
04:20 PM 50.7°F10.4°C 44.1°F6.7°C 78% 2.3 mph NE3.7 kmh NE 3.5 mph5.6 kmh 30.28 in1025.4 mb - 0.02 in0.5 mm 0.02 in0.5 mm
04:25 PM 50.6°F10.3°C 44.0°F6.7°C 78% 2.3 mph NE3.7 kmh NE 4.6 mph7.4 kmh 30.28 in1025.4 mb - 0.02 in0.5 mm 0.02 in0.5 mm
04:30 PM 50.6°F10.3°C 44.0°F6.7°C 78% 2.3 mph SE3.7 kmh SE 4.6 mph7.4 kmh 30.28 in1025.4 mb - 0.01 in0.3 mm 0.02 in0.5 mm
04:35 PM 50.6°F10.3°C 44.0°F6.7°C 78% 2.3 mph SSW3.7 kmh SSW 3.5 mph5.6 kmh 30.29 in1025.7 mb - 0.01 in0.3 mm 0.02 in0.5 mm
04:40 PM 50.6°F10.3°C 43.7°F6.5°C 77% Calm Calm 2.3 mph3.7 kmh 30.29 in1025.7 mb - 0.00 in0.0 mm 0.02 in0.5 mm
04:45 PM 50.6°F10.3°C 43.7°F6.5°C 77% 1.2 mph SSW1.9 kmh SSW 1.2 mph1.9 kmh 30.29 in1025.7 mb - 0.00 in0.0 mm 0.02 in0.5 mm
04:50 PM 50.6°F10.3°C 43.6°F6.4°C 77% Calm Calm 1.2 mph1.9 kmh 30.29 in1025.7 mb - 0.00 in0.0 mm 0.02 in0.5 mm
04:55 PM 50.5°F10.3°C 43.6°F6.4°C 77% Calm Calm -- 30.30 in1026.1 mb - 0.00 in0.0 mm 0.02 in0.5 mm
05:00 PM 50.5°F10.3°C 43.6°F6.4°C 77% Calm Calm -- 30.30 in1026.1 mb - 0.00 in0.0 mm 0.02 in0.5 mm
05:05 PM 50.5°F10.3°C 43.5°F6.4°C 77% Calm Calm 1.2 mph1.9 kmh 30.31 in1026.4 mb - 0.00 in0.0 mm 0.02 in0.5 mm
05:10 PM 50.5°F10.3°C 43.6°F6.4°C 77% Calm Calm 2.3 mph3.7 kmh 30.31 in1026.4 mb - 0.00 in0.0 mm 0.02 in0.5 mm
05:15 PM 50.5°F10.3°C 43.6°F6.4°C 77% 2.3 mph SSW3.7 kmh SSW 3.5 mph5.6 kmh 30.31 in1026.4 mb - 0.00 in0.0 mm 0.02 in0.5 mm
05:20 PM 50.5°F10.3°C 43.6°F6.4°C 77% Calm Calm -- 30.31 in1026.4 mb - 0.00 in0.0 mm 0.02 in0.5 mm
05:25 PM 50.5°F10.3°C 43.6°F6.4°C 77% Calm Calm -- 30.32 in1026.8 mb - 0.00 in0.0 mm 0.02 in0.5 mm
05:30 PM 50.4°F10.2°C 43.5°F6.4°C 77% Calm Calm 5.8 mph9.3 kmh 30.32 in1026.8 mb - 0.00 in0.0 mm 0.02 in0.5 mm
05:35 PM 50.4°F10.2°C 43.5°F6.4°C 77% 3.5 mph WNW5.6 kmh WNW 4.6 mph7.4 kmh 30.32 in1026.8 mb - 0.00 in0.0 mm 0.02 in0.5 mm
05:40 PM 50.5°F10.3°C 43.6°F6.4°C 77% 1.2 mph W1.9 kmh W 5.8 mph9.3 kmh 30.32 in1026.8 mb - 0.00 in0.0 mm 0.02 in0.5 mm
05:45 PM 50.6°F10.3°C 43.7°F6.5°C 77% 1.2 mph SW1.9 kmh SW 2.3 mph3.7 kmh 30.32 in1026.8 mb - 0.00 in0.0 mm 0.02 in0.5 mm
05:50 PM 50.7°F10.4°C 44.1°F6.7°C 78% 3.5 mph WSW5.6 kmh WSW 5.8 mph9.3 kmh 30.32 in1026.8 mb - 0.00 in0.0 mm 0.02 in0.5 mm
05:55 PM 50.8°F10.4°C 44.2°F6.8°C 78% 2.3 mph WSW3.7 kmh WSW 4.6 mph7.4 kmh 30.32 in1026.8 mb - 0.00 in0.0 mm 0.02 in0.5 mm
06:00 PM 50.8°F10.4°C 44.2°F6.8°C 78% 1.2 mph WSW1.9 kmh WSW 1.2 mph1.9 kmh 30.32 in1026.8 mb - 0.00 in0.0 mm 0.02 in0.5 mm
06:05 PM 50.8°F10.4°C 44.2°F6.8°C 78% 1.2 mph WSW1.9 kmh WSW 2.3 mph3.7 kmh 30.32 in1026.8 mb - 0.00 in0.0 mm 0.02 in0.5 mm
06:10 PM 50.8°F10.4°C 44.2°F6.8°C 78% Calm Calm 2.3 mph3.7 kmh 30.33 in1027.1 mb - 0.00 in0.0 mm 0.02 in0.5 mm
06:15 PM 50.8°F10.4°C 44.2°F6.8°C 78% 2.3 mph WSW3.7 kmh WSW 3.5 mph5.6 kmh 30.33 in1027.1 mb - 0.00 in0.0 mm 0.02 in0.5 mm
06:20 PM 50.7°F10.4°C 44.1°F6.7°C 78% 1.2 mph N1.9 kmh N 2.3 mph3.7 kmh 30.33 in1027.1 mb - 0.00 in0.0 mm 0.02 in0.5 mm
06:25 PM 50.8°F10.4°C 44.1°F6.7°C 78% 3.5 mph SE5.6 kmh SE 4.6 mph7.4 kmh 30.34 in1027.4 mb - 0.00 in0.0 mm 0.02 in0.5 mm
06:30 PM 51.0°F10.6°C 44.4°F6.9°C 78% 3.5 mph SSW5.6 kmh SSW 3.5 mph5.6 kmh 30.34 in1027.4 mb - 0.00 in0.0 mm 0.02 in0.5 mm
06:35 PM 51.1°F10.6°C 44.4°F6.9°C 78% Calm Calm 3.5 mph5.6 kmh 30.34 in1027.4 mb - 0.00 in0.0 mm 0.02 in0.5 mm
06:40 PM 51.2°F10.7°C 44.6°F7.0°C 78% 3.5 mph WSW5.6 kmh WSW 4.6 mph7.4 kmh 30.35 in1027.8 mb - 0.00 in0.0 mm 0.02 in0.5 mm
06:45 PM 51.3°F10.7°C 44.7°F7.1°C 78% 4.6 mph SW7.4 kmh SW 6.9 mph11.1 kmh 30.34 in1027.4 mb - 0.00 in0.0 mm 0.02 in0.5 mm
06:50 PM 51.3°F10.7°C 45.0°F7.2°C 79% 4.6 mph SW7.4 kmh SW 5.8 mph9.3 kmh 30.35 in1027.8 mb - 0.00 in0.0 mm 0.02 in0.5 mm
06:55 PM 51.2°F10.7°C 44.9°F7.2°C 79% 4.6 mph SW7.4 kmh SW 12.7 mph20.4 kmh 30.35 in1027.8 mb - 0.00 in0.0 mm 0.02 in0.5 mm
07:00 PM 51.3°F10.7°C 45.0°F7.2°C 79% 6.9 mph SW11.1 kmh SW 10.4 mph16.7 kmh 30.35 in1027.8 mb - 0.00 in0.0 mm 0.02 in0.5 mm
07:05 PM 51.4°F10.8°C 45.1°F7.3°C 79% 5.8 mph SW9.3 kmh SW 9.2 mph14.8 kmh 30.35 in1027.8 mb - 0.00 in0.0 mm 0.02 in0.5 mm
07:10 PM 51.5°F10.8°C 44.9°F7.2°C 78% 6.9 mph SW11.1 kmh SW 9.2 mph14.8 kmh 30.35 in1027.8 mb - 0.00 in0.0 mm 0.02 in0.5 mm
07:15 PM 51.4°F10.8°C 45.1°F7.3°C 79% 4.6 mph SW7.4 kmh SW 5.8 mph9.3 kmh 30.35 in1027.8 mb - 0.00 in0.0 mm 0.02 in0.5 mm
07:20 PM 51.2°F10.7°C 44.9°F7.2°C 79% 5.8 mph SW9.3 kmh SW 9.2 mph14.8 kmh 30.35 in1027.8 mb - 0.00 in0.0 mm 0.02 in0.5 mm
07:25 PM 50.8°F10.4°C 44.5°F6.9°C 79% 4.6 mph WSW7.4 kmh WSW 8.1 mph13.0 kmh 30.36 in1028.1 mb - 0.00 in0.0 mm 0.02 in0.5 mm
07:30 PM 50.5°F10.3°C 44.3°F6.8°C 79% 3.5 mph WSW5.6 kmh WSW 5.8 mph9.3 kmh 30.36 in1028.1 mb - 0.00 in0.0 mm 0.02 in0.5 mm
07:35 PM 50.3°F10.2°C 43.7°F6.5°C 78% 2.3 mph WSW3.7 kmh WSW 3.5 mph5.6 kmh 30.36 in1028.1 mb - 0.00 in0.0 mm 0.02 in0.5 mm
07:40 PM 50.1°F10.1°C 43.5°F6.4°C 78% 2.3 mph WSW3.7 kmh WSW 3.5 mph5.6 kmh 30.36 in1028.1 mb - 0.00 in0.0 mm 0.02 in0.5 mm
07:45 PM 50.1°F10.1°C 43.5°F6.4°C 78% 2.3 mph WSW3.7 kmh WSW 3.5 mph5.6 kmh 30.37 in1028.4 mb - 0.00 in0.0 mm 0.02 in0.5 mm
07:50 PM 50.1°F10.1°C 43.5°F6.4°C 78% 1.2 mph WSW1.9 kmh WSW 2.3 mph3.7 kmh 30.37 in1028.4 mb - 0.00 in0.0 mm 0.02 in0.5 mm
07:55 PM 50.1°F10.1°C 43.5°F6.4°C 78% 2.3 mph WSW3.7 kmh WSW 3.5 mph5.6 kmh 30.37 in1028.4 mb - 0.00 in0.0 mm 0.02 in0.5 mm
08:00 PM 50.0°F10.0°C 43.4°F6.3°C 78% 2.3 mph WSW3.7 kmh WSW 3.5 mph5.6 kmh 30.37 in1028.4 mb - 0.00 in0.0 mm 0.02 in0.5 mm
08:05 PM 50.0°F10.0°C 43.4°F6.3°C 78% 1.2 mph WSW1.9 kmh WSW 3.5 mph5.6 kmh 30.37 in1028.4 mb - 0.00 in0.0 mm 0.02 in0.5 mm
08:10 PM 50.0°F10.0°C 43.4°F6.3°C 78% 2.3 mph WSW3.7 kmh WSW 3.5 mph5.6 kmh 30.37 in1028.4 mb - 0.00 in0.0 mm 0.02 in0.5 mm
08:15 PM 50.1°F10.1°C 43.5°F6.4°C 78% 3.5 mph WSW5.6 kmh WSW 4.6 mph7.4 kmh 30.37 in1028.4 mb - 0.00 in0.0 mm 0.02 in0.5 mm
08:20 PM 50.1°F10.1°C 43.5°F6.4°C 78% 4.6 mph WSW7.4 kmh WSW 6.9 mph11.1 kmh 30.37 in1028.4 mb - 0.00 in0.0 mm 0.02 in0.5 mm
08:25 PM 50.1°F10.1°C 43.5°F6.4°C 78% 5.8 mph WSW9.3 kmh WSW 9.2 mph14.8 kmh 30.37 in1028.4 mb - 0.00 in0.0 mm 0.02 in0.5 mm
08:30 PM 50.1°F10.1°C 43.5°F6.4°C 78% 5.8 mph WSW9.3 kmh WSW 9.2 mph14.8 kmh 30.38 in1028.8 mb - 0.00 in0.0 mm 0.02 in0.5 mm
08:35 PM 50.1°F10.1°C 43.5°F6.4°C 78% 2.3 mph W3.7 kmh W 3.5 mph5.6 kmh 30.38 in1028.8 mb - 0.00 in0.0 mm 0.02 in0.5 mm
08:40 PM 50.0°F10.0°C 43.4°F6.3°C 78% 3.5 mph W5.6 kmh W 6.9 mph11.1 kmh 30.38 in1028.8 mb - 0.00 in0.0 mm 0.02 in0.5 mm
08:45 PM 50.0°F10.0°C 43.4°F6.3°C 78% 2.3 mph W3.7 kmh W 3.5 mph5.6 kmh 30.38 in1028.8 mb - 0.00 in0.0 mm 0.02 in0.5 mm
08:50 PM 50.0°F10.0°C 43.4°F6.3°C 78% 1.2 mph W1.9 kmh W 2.3 mph3.7 kmh 30.38 in1028.8 mb - 0.00 in0.0 mm 0.02 in0.5 mm
08:55 PM 50.1°F10.1°C 43.5°F6.4°C 78% 2.3 mph W3.7 kmh W 3.5 mph5.6 kmh 30.39 in1029.1 mb - 0.00 in0.0 mm 0.02 in0.5 mm
09:00 PM 50.1°F10.1°C 43.5°F6.4°C 78% 2.3 mph NW3.7 kmh NW 3.5 mph5.6 kmh 30.39 in1029.1 mb - 0.00 in0.0 mm 0.02 in0.5 mm
09:05 PM 50.0°F10.0°C 43.4°F6.3°C 78% 2.3 mph WSW3.7 kmh WSW 3.5 mph5.6 kmh 30.39 in1029.1 mb - 0.00 in0.0 mm 0.02 in0.5 mm
09:10 PM 50.2°F10.1°C 43.6°F6.4°C 78% 2.3 mph SW3.7 kmh SW 4.6 mph7.4 kmh 30.39 in1029.1 mb - 0.00 in0.0 mm 0.02 in0.5 mm
09:15 PM 50.2°F10.1°C 43.6°F6.4°C 78% 4.6 mph WSW7.4 kmh WSW 5.8 mph9.3 kmh 30.38 in1028.8 mb - 0.00 in0.0 mm 0.02 in0.5 mm
09:20 PM 50.2°F10.1°C 43.6°F6.4°C 78% 3.5 mph WSW5.6 kmh WSW 6.9 mph11.1 kmh 30.39 in1029.1 mb - 0.00 in0.0 mm 0.02 in0.5 mm
09:25 PM 50.2°F10.1°C 43.6°F6.4°C 78% 3.5 mph W5.6 kmh W 5.8 mph9.3 kmh 30.39 in1029.1 mb - 0.00 in0.0 mm 0.02 in0.5 mm
09:30 PM 50.2°F10.1°C 43.6°F6.4°C 78% 1.2 mph W1.9 kmh W 1.2 mph1.9 kmh 30.40 in1029.5 mb - 0.00 in0.0 mm 0.02 in0.5 mm
09:35 PM 50.2°F10.1°C 43.6°F6.4°C 78% 1.2 mph W1.9 kmh W 3.5 mph5.6 kmh 30.40 in1029.5 mb - 0.00 in0.0 mm 0.02 in0.5 mm
09:40 PM 50.2°F10.1°C 43.6°F6.4°C 78% 2.3 mph W3.7 kmh W 3.5 mph5.6 kmh 30.40 in1029.5 mb - 0.00 in0.0 mm 0.02 in0.5 mm
09:45 PM 50.1°F10.1°C 43.5°F6.4°C 78% 1.2 mph W1.9 kmh W 2.3 mph3.7 kmh 30.40 in1029.5 mb - 0.00 in0.0 mm 0.02 in0.5 mm
09:50 PM 49.9°F9.9°C 43.6°F6.4°C 79% Calm Calm 2.3 mph3.7 kmh 30.40 in1029.5 mb - 0.00 in0.0 mm 0.02 in0.5 mm
09:55 PM 49.7°F9.8°C 43.5°F6.4°C 79% Calm Calm 1.2 mph1.9 kmh 30.40 in1029.5 mb - 0.00 in0.0 mm 0.02 in0.5 mm
10:00 PM 49.5°F9.7°C 43.3°F6.3°C 79% 1.2 mph W1.9 kmh W 3.5 mph5.6 kmh 30.40 in1029.5 mb - 0.00 in0.0 mm 0.02 in0.5 mm
10:05 PM 49.3°F9.6°C 43.1°F6.2°C 79% 2.3 mph W3.7 kmh W 3.5 mph5.6 kmh 30.40 in1029.5 mb - 0.00 in0.0 mm 0.02 in0.5 mm
10:10 PM 49.2°F9.6°C 42.6°F5.9°C 78% 1.2 mph W1.9 kmh W 1.2 mph1.9 kmh 30.40 in1029.5 mb - 0.00 in0.0 mm 0.02 in0.5 mm
10:15 PM 49.0°F9.4°C 42.8°F6.0°C 79% Calm Calm 1.2 mph1.9 kmh 30.41 in1029.8 mb - 0.00 in0.0 mm 0.02 in0.5 mm
10:20 PM 48.8°F9.3°C 42.2°F5.7°C 78% Calm Calm -- 30.41 in1029.8 mb - 0.00 in0.0 mm 0.02 in0.5 mm
10:25 PM 48.7°F9.3°C 42.1°F5.6°C 78% Calm Calm -- 30.42 in1030.1 mb - 0.00 in0.0 mm 0.02 in0.5 mm
10:30 PM 48.8°F9.3°C 42.2°F5.7°C 78% Calm Calm -- 30.42 in1030.1 mb - 0.00 in0.0 mm 0.02 in0.5 mm
10:35 PM 48.8°F9.3°C 42.2°F5.7°C 78% 1.2 mph W1.9 kmh W 2.3 mph3.7 kmh 30.42 in1030.1 mb - 0.00 in0.0 mm 0.02 in0.5 mm
10:40 PM 48.6°F9.2°C 42.1°F5.6°C 78% Calm Calm -- 30.42 in1030.1 mb - 0.00 in0.0 mm 0.02 in0.5 mm
10:45 PM 48.3°F9.1°C 41.8°F5.4°C 78% Calm Calm -- 30.42 in1030.1 mb - 0.00 in0.0 mm 0.02 in0.5 mm
10:50 PM 48.1°F8.9°C 41.6°F5.3°C 78% Calm Calm -- 30.43 in1030.5 mb - 0.00 in0.0 mm 0.02 in0.5 mm
10:55 PM 47.8°F8.8°C 41.3°F5.2°C 78% Calm Calm -- 30.43 in1030.5 mb - 0.00 in0.0 mm 0.02 in0.5 mm
11:00 PM 47.8°F8.8°C 41.3°F5.2°C 78% Calm Calm 2.3 mph3.7 kmh 30.43 in1030.5 mb - 0.00 in0.0 mm 0.02 in0.5 mm
11:05 PM 47.4°F8.6°C 40.9°F4.9°C 78% 1.2 mph W1.9 kmh W 2.3 mph3.7 kmh 30.43 in1030.5 mb - 0.00 in0.0 mm 0.02 in0.5 mm
11:10 PM 46.9°F8.3°C 40.4°F4.7°C 78% 2.3 mph WNW3.7 kmh WNW 3.5 mph5.6 kmh 30.44 in1030.8 mb - 0.00 in0.0 mm 0.02 in0.5 mm
11:15 PM 46.5°F8.1°C 40.3°F4.6°C 79% 3.5 mph WNW5.6 kmh WNW 3.5 mph5.6 kmh 30.44 in1030.8 mb - 0.00 in0.0 mm 0.02 in0.5 mm
11:20 PM 46.1°F7.8°C 39.6°F4.2°C 78% Calm Calm -- 30.44 in1030.8 mb - 0.00 in0.0 mm 0.02 in0.5 mm
11:25 PM 46.1°F7.8°C 39.6°F4.2°C 78% Calm Calm -- 30.44 in1030.8 mb - 0.00 in0.0 mm 0.02 in0.5 mm
11:30 PM 45.9°F7.7°C 39.4°F4.1°C 78% Calm Calm -- 30.44 in1030.8 mb - 0.00 in0.0 mm 0.02 in0.5 mm
11:35 PM 45.7°F7.6°C 39.2°F4.0°C 78% Calm Calm -- 30.45 in1031.2 mb - 0.00 in0.0 mm 0.02 in0.5 mm
11:40 PM 45.6°F7.6°C 39.1°F3.9°C 78% 1.2 mph WNW1.9 kmh WNW 2.3 mph3.7 kmh 30.45 in1031.2 mb - 0.00 in0.0 mm 0.02 in0.5 mm
11:45 PM 45.3°F7.4°C 38.9°F3.8°C 78% Calm Calm -- 30.45 in1031.2 mb - 0.00 in0.0 mm 0.02 in0.5 mm
11:50 PM 44.9°F7.2°C 38.4°F3.6°C 78% 2.3 mph NW3.7 kmh NW 3.5 mph5.6 kmh 30.45 in1031.2 mb - 0.00 in0.0 mm 0.02 in0.5 mm
11:55 PM 44.5°F6.9°C 38.1°F3.4°C 78% 2.3 mph NW3.7 kmh NW 3.5 mph5.6 kmh 30.45 in1031.2 mb - 0.00 in0.0 mm 0.02 in0.5 mm